createdAt,value
2019-04-12T00:01:02.895Z,0
2019-04-12T00:02:02.715Z,0
2019-04-12T00:03:02.128Z,0
2019-04-12T00:04:02.129Z,0
2019-04-12T00:05:02.792Z,0
2019-04-12T00:06:03.466Z,0
2019-04-12T00:07:04.126Z,0
2019-04-12T00:08:04.806Z,0
2019-04-12T00:09:05.493Z,0
2019-04-12T00:10:06.173Z,0
2019-04-12T00:11:06.857Z,0
2019-04-12T00:12:07.537Z,0
2019-04-12T00:13:08.214Z,0
2019-04-12T00:14:08.894Z,0
2019-04-12T00:15:11.818Z,0
2019-04-12T00:16:11.888Z,0
2019-04-12T00:17:13.763Z,0
2019-04-12T00:18:11.989Z,0
2019-04-12T00:19:13.917Z,0
2019-04-12T00:20:13.931Z,0
2019-04-12T00:21:15.495Z,0
2019-04-12T00:22:16.111Z,0
2019-04-12T00:23:16.103Z,0
2019-04-12T00:24:17.191Z,0
2019-04-12T00:25:17.384Z,0
2019-04-12T00:26:18.518Z,0
2019-04-12T00:27:19.020Z,0
2019-04-12T00:28:19.651Z,0
2019-04-12T00:29:20.595Z,0
2019-04-12T00:30:21.422Z,0
2019-04-12T00:31:22.981Z,0
2019-04-12T00:32:22.236Z,0
2019-04-12T00:33:22.999Z,0
2019-04-12T00:34:24.130Z,0
2019-04-12T00:35:24.063Z,0
2019-04-12T00:36:24.718Z,0
2019-04-12T00:37:25.400Z,0
2019-04-12T00:38:26.797Z,0
2019-04-12T00:39:29.350Z,0
2019-04-12T00:40:28.973Z,0
2019-04-12T00:41:32.098Z,0
2019-04-12T00:42:32.821Z,0
2019-04-12T00:43:31.270Z,0
2019-04-12T00:44:31.145Z,0
2019-04-12T00:45:33.035Z,0
2019-04-12T00:46:31.488Z,0
2019-04-12T00:47:32.177Z,0
2019-04-12T00:48:32.851Z,0
2019-04-12T00:49:33.528Z,0
2019-04-12T00:50:34.225Z,0
2019-04-12T00:51:34.886Z,0
2019-04-12T00:52:35.568Z,0
2019-04-12T00:53:36.248Z,0
2019-04-12T00:54:45.821Z,0
2019-04-12T00:55:37.610Z,0
2019-04-12T00:56:38.289Z,0
2019-04-12T00:57:38.974Z,0
2019-04-12T00:58:39.616Z,0
2019-04-12T00:59:40.324Z,0
2019-04-12T01:00:40.976Z,0
2019-04-12T01:01:41.691Z,0
2019-04-12T01:02:43.414Z,0
2019-04-12T01:03:45.825Z,0
2019-04-12T01:04:44.193Z,0
2019-04-12T01:05:47.904Z,0
2019-04-12T01:06:45.976Z,0
2019-04-12T01:07:47.996Z,0
2019-04-12T01:08:46.427Z,0
2019-04-12T01:09:47.093Z,0
2019-04-12T01:10:47.784Z,0
2019-04-12T01:11:48.457Z,0
2019-04-12T01:12:49.138Z,0
2019-04-12T01:13:49.813Z,0
2019-04-12T01:14:50.492Z,0
2019-04-12T01:15:51.210Z,0
2019-04-12T01:16:51.946Z,0
2019-04-12T01:17:52.682Z,0
2019-04-12T01:18:53.333Z,0
2019-04-12T01:19:54.024Z,0
2019-04-12T01:20:54.745Z,0
2019-04-12T01:21:55.393Z,0
2019-04-12T01:22:56.071Z,0
2019-04-12T01:23:56.760Z,0
2019-04-12T01:24:57.919Z,0
2019-04-12T01:25:58.102Z,0
2019-04-12T01:26:58.785Z,0
2019-04-12T01:27:59.464Z,0
2019-04-12T01:29:00.139Z,0
2019-04-12T01:30:00.846Z,0
2019-04-12T01:31:01.457Z,0
2019-04-12T01:32:02.142Z,0
2019-04-12T01:33:02.857Z,0
2019-04-12T01:34:03.495Z,0
2019-04-12T01:35:04.172Z,0
2019-04-12T01:36:04.849Z,0
2019-04-12T01:37:05.494Z,0
2019-04-12T01:38:06.174Z,0
2019-04-12T01:39:06.853Z,0
2019-04-12T01:40:07.541Z,0
2019-04-12T01:41:08.212Z,0
2019-04-12T01:42:08.896Z,0
2019-04-12T01:43:09.571Z,0
2019-04-12T01:44:10.252Z,0
2019-04-12T01:45:10.929Z,0
2019-04-12T01:46:11.614Z,0
2019-04-12T01:47:12.296Z,0
2019-04-12T01:48:12.972Z,0
2019-04-12T01:49:13.654Z,0
2019-04-12T01:50:14.329Z,0
2019-04-12T01:51:15.011Z,0
2019-04-12T01:52:15.686Z,0
2019-04-12T01:53:16.365Z,0
2019-04-12T01:54:17.045Z,0
2019-04-12T01:55:17.723Z,0
2019-04-12T01:56:18.402Z,0
2019-04-12T01:57:19.090Z,0
2019-04-12T01:58:19.772Z,0
2019-04-12T01:59:20.451Z,0
2019-04-12T02:00:21.147Z,0
2019-04-12T02:01:21.834Z,0
2019-04-12T02:02:22.493Z,0
2019-04-12T02:03:23.158Z,0
2019-04-12T02:04:23.846Z,0
2019-04-12T02:05:24.512Z,0
2019-04-12T02:06:25.192Z,0
2019-04-12T02:07:25.870Z,0
2019-04-12T02:08:26.552Z,0
2019-04-12T02:09:27.227Z,0
2019-04-12T02:10:27.910Z,0
2019-04-12T02:11:28.602Z,0
2019-04-12T02:12:29.260Z,0
2019-04-12T02:13:29.941Z,0
2019-04-12T02:14:30.615Z,0
2019-04-12T02:15:31.312Z,0
2019-04-12T02:16:31.981Z,0
2019-04-12T02:17:32.668Z,0
2019-04-12T02:18:33.360Z,0
2019-04-12T02:19:34.233Z,0
2019-04-12T02:20:34.959Z,0
2019-04-12T02:21:35.591Z,0
2019-04-12T02:22:36.274Z,0
2019-04-12T02:23:36.999Z,0
2019-04-12T02:24:37.626Z,0
2019-04-12T02:25:38.315Z,0
2019-04-12T02:26:38.987Z,0
2019-04-12T02:27:39.664Z,0
2019-04-12T02:28:40.348Z,0
2019-04-12T02:29:41.028Z,0
2019-04-12T02:30:41.707Z,0
2019-04-12T02:31:42.391Z,0
2019-04-12T02:32:43.061Z,0
2019-04-12T02:33:43.742Z,0
2019-04-12T02:34:44.417Z,0
2019-04-12T02:35:45.096Z,0
2019-04-12T02:36:45.775Z,0
2019-04-12T02:37:46.658Z,0
2019-04-12T02:38:47.335Z,0
2019-04-12T02:39:48.012Z,0
2019-04-12T02:40:48.703Z,0
2019-04-12T02:41:49.375Z,0
2019-04-12T02:42:50.060Z,0
2019-04-12T02:43:50.828Z,0
2019-04-12T02:44:51.413Z,0
2019-04-12T02:45:52.117Z,0
2019-04-12T02:46:52.774Z,0
2019-04-12T02:47:53.473Z,0
2019-04-12T02:48:54.141Z,0
2019-04-12T02:49:54.824Z,0
2019-04-12T02:50:55.497Z,0
2019-04-12T02:51:56.191Z,0
2019-04-12T02:52:56.856Z,0
2019-04-12T02:53:57.539Z,0
2019-04-12T02:54:58.219Z,0
2019-04-12T02:55:58.910Z,0
2019-04-12T02:56:59.579Z,0
2019-04-12T02:58:00.261Z,0
2019-04-12T02:59:00.957Z,0
2019-04-12T03:00:01.641Z,0
2019-04-12T03:01:02.326Z,0
2019-04-12T03:02:02.982Z,0
2019-04-12T03:03:03.659Z,0
2019-04-12T03:04:04.352Z,0
2019-04-12T03:05:05.025Z,0
2019-04-12T03:06:05.702Z,0
2019-04-12T03:07:06.384Z,0
2019-04-12T03:08:07.063Z,0
2019-04-12T03:09:07.746Z,0
2019-04-12T03:10:08.426Z,0
2019-04-12T03:11:09.116Z,0
2019-04-12T03:12:09.802Z,0
2019-04-12T03:13:10.469Z,0
2019-04-12T03:14:11.143Z,0
2019-04-12T03:15:11.817Z,0
2019-04-12T03:16:12.510Z,0
2019-04-12T03:17:13.217Z,0
2019-04-12T03:18:13.881Z,0
2019-04-12T03:19:14.541Z,0
2019-04-12T03:20:15.224Z,0
2019-04-12T03:21:15.971Z,0
2019-04-12T03:22:16.569Z,0
2019-04-12T03:23:17.250Z,0
2019-04-12T03:24:17.932Z,0
2019-04-12T03:25:18.610Z,0
2019-04-12T03:26:19.298Z,0
2019-04-12T03:27:19.971Z,0
2019-04-12T03:28:20.652Z,0
2019-04-12T03:29:21.332Z,0
2019-04-12T03:30:22.018Z,0
2019-04-12T03:31:22.694Z,0
2019-04-12T03:32:23.376Z,0
2019-04-12T03:33:24.055Z,0
2019-04-12T03:34:24.736Z,0
2019-04-12T03:35:25.433Z,0
2019-04-12T03:36:26.110Z,0
2019-04-12T03:37:26.781Z,0
2019-04-12T03:38:27.464Z,0
2019-04-12T03:39:28.140Z,0
2019-04-12T03:40:28.824Z,0
2019-04-12T03:41:29.480Z,0
2019-04-12T03:42:30.148Z,0
2019-04-12T03:43:30.833Z,0
2019-04-12T03:44:31.510Z,0
2019-04-12T03:45:32.202Z,0
2019-04-12T03:46:32.866Z,0
2019-04-12T03:47:33.545Z,0
2019-04-12T03:48:34.239Z,0
2019-04-12T03:49:34.925Z,0
2019-04-12T03:50:35.602Z,0
2019-04-12T03:51:36.275Z,0
2019-04-12T03:52:36.951Z,0
2019-04-12T03:53:37.630Z,0
2019-04-12T03:54:38.318Z,0
2019-04-12T03:55:38.997Z,0
2019-04-12T03:56:39.678Z,0
2019-04-12T03:57:40.357Z,0
2019-04-12T03:58:41.094Z,0
2019-04-12T03:59:41.774Z,0
2019-04-12T04:00:42.452Z,0
2019-04-12T04:01:43.132Z,0
2019-04-12T04:02:43.811Z,0
2019-04-12T04:03:44.494Z,0
2019-04-12T04:04:45.173Z,0
2019-04-12T04:05:45.877Z,0
2019-04-12T04:06:46.531Z,0
2019-04-12T04:07:47.208Z,0
2019-04-12T04:08:47.891Z,0
2019-04-12T04:09:48.571Z,0
2019-04-12T04:10:49.247Z,0
2019-04-12T04:11:49.940Z,0
2019-04-12T04:12:50.621Z,0
2019-04-12T04:13:51.297Z,0
2019-04-12T04:14:51.988Z,0
2019-04-12T04:15:52.667Z,0
2019-04-12T04:16:53.345Z,0
2019-04-12T04:17:54.018Z,0
2019-04-12T04:18:54.704Z,0
2019-04-12T04:19:55.391Z,0
2019-04-12T04:20:56.063Z,0
2019-04-12T04:21:56.747Z,0
2019-04-12T04:22:57.429Z,0
2019-04-12T04:23:58.107Z,0
2019-04-12T04:24:58.796Z,0
2019-04-12T04:25:59.497Z,0
2019-04-12T04:27:00.157Z,0
2019-04-12T04:28:00.838Z,0
2019-04-12T04:29:01.521Z,0
2019-04-12T04:30:02.219Z,0
2019-04-12T04:31:02.877Z,0
2019-04-12T04:32:03.559Z,0
2019-04-12T04:33:04.239Z,0
2019-04-12T04:34:04.914Z,0
2019-04-12T04:35:05.688Z,0
2019-04-12T04:36:06.273Z,0
2019-04-12T04:37:06.951Z,0
2019-04-12T04:38:07.602Z,5
2019-04-12T04:39:08.287Z,5
2019-04-12T04:40:08.964Z,5
2019-04-12T04:41:09.654Z,5
2019-04-12T04:42:10.327Z,5
2019-04-12T04:43:11.087Z,5
2019-04-12T04:44:11.763Z,5
2019-04-12T04:45:12.437Z,5
2019-04-12T04:46:13.134Z,5
2019-04-12T04:47:13.819Z,5
2019-04-12T04:48:14.496Z,5
2019-04-12T04:49:15.186Z,5
2019-04-12T04:50:15.864Z,5
2019-04-12T04:51:16.544Z,11
2019-04-12T04:52:17.255Z,11
2019-04-12T04:53:17.907Z,11
2019-04-12T04:54:18.589Z,11
2019-04-12T04:55:19.281Z,16
2019-04-12T04:56:19.980Z,16
2019-04-12T04:57:20.664Z,16
2019-04-12T04:58:21.348Z,22
2019-04-12T04:59:22.032Z,22
2019-04-12T05:00:22.717Z,28
2019-04-12T05:01:23.400Z,28
2019-04-12T05:02:24.084Z,28
2019-04-12T05:03:24.778Z,33
2019-04-12T05:04:25.486Z,33
2019-04-12T05:05:26.158Z,33
2019-04-12T05:06:26.846Z,33
2019-04-12T05:07:27.525Z,33
2019-04-12T05:08:28.201Z,39
2019-04-12T05:09:28.885Z,39
2019-04-12T05:10:29.567Z,45
2019-04-12T05:11:30.263Z,45
2019-04-12T05:12:30.947Z,50
2019-04-12T05:13:31.621Z,50
2019-04-12T05:14:32.315Z,56
2019-04-12T05:15:32.998Z,56
2019-04-12T05:16:33.684Z,61
2019-04-12T05:17:34.361Z,61
2019-04-12T05:18:35.049Z,56
2019-04-12T05:19:35.733Z,56
2019-04-12T05:20:36.418Z,56
2019-04-12T05:21:37.111Z,56
2019-04-12T05:22:37.796Z,61
2019-04-12T05:23:38.480Z,61
2019-04-12T05:24:39.159Z,67
2019-04-12T05:25:39.846Z,67
2019-04-12T05:26:45.375Z,73
2019-04-12T05:27:41.202Z,78
2019-04-12T05:28:41.894Z,84
2019-04-12T05:29:42.572Z,84
2019-04-12T05:30:43.223Z,90
2019-04-12T05:31:43.914Z,90
2019-04-12T05:32:44.589Z,95
2019-04-12T05:33:45.281Z,101
2019-04-12T05:34:45.958Z,101
2019-04-12T05:35:46.648Z,106
2019-04-12T05:36:47.336Z,112
2019-04-12T05:37:48.025Z,118
2019-04-12T05:38:48.702Z,123
2019-04-12T05:39:49.387Z,129
2019-04-12T05:40:50.075Z,140
2019-04-12T05:41:50.760Z,146
2019-04-12T05:42:51.444Z,157
2019-04-12T05:43:52.129Z,163
2019-04-12T05:44:52.819Z,168
2019-04-12T05:45:53.506Z,174
2019-04-12T05:46:54.183Z,180
2019-04-12T05:47:54.865Z,180
2019-04-12T05:48:55.551Z,185
2019-04-12T05:49:56.233Z,191
2019-04-12T05:50:56.920Z,196
2019-04-12T05:51:57.611Z,202
2019-04-12T05:52:58.548Z,213
2019-04-12T05:53:59.371Z,219
2019-04-12T05:54:59.649Z,219
2019-04-12T05:56:00.330Z,225
2019-04-12T05:57:01.022Z,230
2019-04-12T05:58:01.698Z,241
2019-04-12T05:59:02.384Z,258
2019-04-12T06:00:03.070Z,264
2019-04-12T06:01:03.750Z,281
2019-04-12T06:02:04.447Z,292
2019-04-12T06:03:05.125Z,303
2019-04-12T06:04:05.809Z,309
2019-04-12T06:05:06.497Z,315
2019-04-12T06:06:07.180Z,320
2019-04-12T06:07:07.865Z,331
2019-04-12T06:08:08.548Z,331
2019-04-12T06:09:09.233Z,337
2019-04-12T06:10:11.673Z,348
2019-04-12T06:11:10.606Z,354
2019-04-12T06:12:11.287Z,354
2019-04-12T06:13:12.076Z,371
2019-04-12T06:14:12.758Z,376
2019-04-12T06:15:13.545Z,388
2019-04-12T06:16:14.232Z,399
2019-04-12T06:17:14.923Z,405
2019-04-12T06:18:15.676Z,399
2019-04-12T06:19:16.289Z,399
2019-04-12T06:20:16.968Z,410
2019-04-12T06:21:17.658Z,405
2019-04-12T06:22:18.342Z,410
2019-04-12T06:23:19.031Z,427
2019-04-12T06:24:19.720Z,427
2019-04-12T06:25:20.403Z,416
2019-04-12T06:26:21.084Z,410
2019-04-12T06:27:21.799Z,405
2019-04-12T06:28:22.484Z,405
2019-04-12T06:29:23.165Z,388
2019-04-12T06:30:23.849Z,388
2019-04-12T06:31:24.531Z,393
2019-04-12T06:32:25.220Z,416
2019-04-12T06:33:25.897Z,421
2019-04-12T06:34:26.584Z,433
2019-04-12T06:35:29.424Z,444
2019-04-12T06:36:27.946Z,461
2019-04-12T06:37:28.628Z,466
2019-04-12T06:38:29.318Z,478
2019-04-12T06:39:30.000Z,461
2019-04-12T06:40:30.680Z,444
2019-04-12T06:41:31.339Z,405
2019-04-12T06:42:32.017Z,360
2019-04-12T06:43:32.698Z,315
2019-04-12T06:44:33.381Z,292
2019-04-12T06:45:34.059Z,258
2019-04-12T06:46:34.742Z,236
2019-04-12T06:47:35.428Z,247
2019-04-12T06:48:36.112Z,270
2019-04-12T06:49:36.792Z,315
2019-04-12T06:50:37.476Z,360
2019-04-12T06:51:38.161Z,405
2019-04-12T06:52:38.850Z,438
2019-04-12T06:53:39.528Z,478
2019-04-12T06:54:40.213Z,500
2019-04-12T06:55:40.896Z,511
2019-04-12T06:56:41.583Z,517
2019-04-12T06:57:42.276Z,511
2019-04-12T06:58:42.951Z,495
2019-04-12T06:59:43.637Z,489
2019-04-12T07:00:44.318Z,500
2019-04-12T07:01:45.013Z,517
2019-04-12T07:02:45.689Z,528
2019-04-12T07:03:56.273Z,545
2019-04-12T07:04:47.055Z,556
2019-04-12T07:05:47.739Z,568
2019-04-12T07:06:48.428Z,579
2019-04-12T07:07:49.105Z,585
2019-04-12T07:08:49.801Z,585
2019-04-12T07:09:50.456Z,579
2019-04-12T07:10:51.138Z,573
2019-04-12T07:11:51.823Z,607
2019-04-12T07:12:52.504Z,641
2019-04-12T07:13:53.193Z,646
2019-04-12T07:14:53.874Z,641
2019-04-12T07:15:54.562Z,630
2019-04-12T07:16:55.248Z,596
2019-04-12T07:17:55.936Z,601
2019-04-12T07:18:56.621Z,596
2019-04-12T07:19:57.313Z,596
2019-04-12T07:20:57.989Z,607
2019-04-12T07:21:58.678Z,613
2019-04-12T07:22:59.512Z,630
2019-04-12T07:24:00.037Z,652
2019-04-12T07:25:00.730Z,675
2019-04-12T07:26:01.414Z,675
2019-04-12T07:27:02.095Z,646
2019-04-12T07:28:02.794Z,618
2019-04-12T07:29:03.466Z,601
2019-04-12T07:30:04.154Z,573
2019-04-12T07:31:04.840Z,556
2019-04-12T07:32:05.521Z,568
2019-04-12T07:33:06.205Z,573
2019-04-12T07:34:06.891Z,556
2019-04-12T07:35:07.577Z,528
2019-04-12T07:36:08.257Z,523
2019-04-12T07:37:08.939Z,534
2019-04-12T07:38:09.626Z,562
2019-04-12T07:39:10.312Z,568
2019-04-12T07:40:10.999Z,562
2019-04-12T07:41:11.680Z,545
2019-04-12T07:42:12.370Z,506
2019-04-12T07:43:13.051Z,483
2019-04-12T07:44:13.744Z,528
2019-04-12T07:45:14.427Z,607
2019-04-12T07:46:15.117Z,663
2019-04-12T07:47:15.798Z,680
2019-04-12T07:48:16.485Z,680
2019-04-12T07:49:17.174Z,675
2019-04-12T07:50:17.855Z,658
2019-04-12T07:51:18.538Z,635
2019-04-12T07:52:19.225Z,624
2019-04-12T07:53:19.919Z,590
2019-04-12T07:54:20.596Z,579
2019-04-12T07:55:21.282Z,613
2019-04-12T07:56:21.964Z,624
2019-04-12T07:57:22.654Z,596
2019-04-12T07:58:23.335Z,596
2019-04-12T07:59:24.024Z,635
2019-04-12T08:00:24.708Z,663
2019-04-12T08:01:25.391Z,680
2019-04-12T08:02:26.088Z,691
2019-04-12T08:03:26.777Z,708
2019-04-12T08:04:27.464Z,731
2019-04-12T08:05:28.151Z,770
2019-04-12T08:06:28.834Z,815
2019-04-12T08:07:29.523Z,883
2019-04-12T08:08:30.207Z,1023
2019-04-12T08:09:30.913Z,1023
2019-04-12T08:10:31.590Z,1063
2019-04-12T08:11:32.280Z,1012
2019-04-12T08:12:32.965Z,978
2019-04-12T08:13:33.649Z,961
2019-04-12T08:14:34.335Z,933
2019-04-12T08:15:35.018Z,916
2019-04-12T08:16:35.705Z,877
2019-04-12T08:17:36.391Z,843
2019-04-12T08:18:37.108Z,804
2019-04-12T08:19:37.765Z,753
2019-04-12T08:20:38.446Z,697
2019-04-12T08:21:39.136Z,652
2019-04-12T08:22:39.823Z,646
2019-04-12T08:23:40.509Z,641
2019-04-12T08:24:41.193Z,641
2019-04-12T08:25:41.880Z,652
2019-04-12T08:26:42.563Z,646
2019-04-12T08:27:43.250Z,618
2019-04-12T08:28:43.935Z,601
2019-04-12T08:29:44.618Z,590
2019-04-12T08:30:45.305Z,579
2019-04-12T08:31:45.992Z,585
2019-04-12T08:32:46.673Z,596
2019-04-12T08:33:47.357Z,596
2019-04-12T08:34:48.043Z,590
2019-04-12T08:35:48.737Z,585
2019-04-12T08:36:49.434Z,573
2019-04-12T08:37:50.112Z,573
2019-04-12T08:38:50.802Z,590
2019-04-12T08:39:51.475Z,601
2019-04-12T08:40:52.164Z,618
2019-04-12T08:41:52.851Z,624
2019-04-12T08:42:53.540Z,635
2019-04-12T08:43:54.290Z,635
2019-04-12T08:44:54.916Z,630
2019-04-12T08:45:55.594Z,613
2019-04-12T08:46:56.272Z,590
2019-04-12T08:47:56.970Z,579
2019-04-12T08:48:57.685Z,585
2019-04-12T08:49:58.353Z,601
2019-04-12T08:50:59.019Z,630
2019-04-12T08:51:59.713Z,652
2019-04-12T08:53:00.407Z,669
2019-04-12T08:54:01.138Z,686
2019-04-12T08:55:01.807Z,697
2019-04-12T08:56:02.507Z,697
2019-04-12T08:57:03.349Z,691
2019-04-12T08:58:10.765Z,680
2019-04-12T08:59:04.714Z,691
2019-04-12T09:00:05.475Z,703
2019-04-12T09:01:06.164Z,708
2019-04-12T09:02:06.776Z,731
2019-04-12T09:03:07.495Z,765
2019-04-12T09:04:08.164Z,804
2019-04-12T09:05:08.859Z,843
2019-04-12T09:06:09.550Z,905
2019-04-12T09:07:10.197Z,967
2019-04-12T09:08:10.962Z,1051
2019-04-12T09:09:11.657Z,1108
2019-04-12T09:10:12.278Z,1147
2019-04-12T09:11:12.930Z,1181
2019-04-12T09:12:15.453Z,1203
2019-04-12T09:13:14.353Z,1237
2019-04-12T09:14:14.998Z,1260
2019-04-12T09:15:15.674Z,1282
2019-04-12T09:16:16.371Z,1361
2019-04-12T09:17:17.137Z,1451
2019-04-12T09:18:17.725Z,1771
2019-04-12T09:19:18.502Z,1406
2019-04-12T09:20:19.087Z,1175
2019-04-12T09:21:19.878Z,1063
2019-04-12T09:22:20.549Z,1001
2019-04-12T09:23:21.208Z,821
2019-04-12T09:24:21.850Z,731
2019-04-12T09:25:22.551Z,675
2019-04-12T09:26:23.247Z,646
2019-04-12T09:27:23.889Z,607
2019-04-12T09:28:25.566Z,590
2019-04-12T09:29:25.331Z,624
2019-04-12T09:30:25.951Z,635
2019-04-12T09:31:26.638Z,624
2019-04-12T09:32:27.281Z,624
2019-04-12T09:33:27.953Z,652
2019-04-12T09:34:28.635Z,675
2019-04-12T09:35:29.319Z,686
2019-04-12T09:36:30.008Z,708
2019-04-12T09:37:30.693Z,725
2019-04-12T09:38:31.378Z,753
2019-04-12T09:39:32.065Z,770
2019-04-12T09:40:32.753Z,787
2019-04-12T09:41:33.460Z,770
2019-04-12T09:42:34.122Z,742
2019-04-12T09:43:34.811Z,680
2019-04-12T09:44:35.502Z,601
2019-04-12T09:45:36.178Z,579
2019-04-12T09:46:36.863Z,641
2019-04-12T09:47:37.546Z,691
2019-04-12T09:48:38.238Z,691
2019-04-12T09:49:38.921Z,691
2019-04-12T09:50:39.607Z,663
2019-04-12T09:51:40.295Z,646
2019-04-12T09:52:40.993Z,663
2019-04-12T09:53:41.667Z,714
2019-04-12T09:54:42.353Z,776
2019-04-12T09:55:43.035Z,804
2019-04-12T09:56:43.724Z,810
2019-04-12T09:57:44.410Z,810
2019-04-12T09:58:45.096Z,798
2019-04-12T09:59:45.778Z,793
2019-04-12T10:00:46.435Z,787
2019-04-12T10:01:47.124Z,787
2019-04-12T10:02:47.814Z,753
2019-04-12T10:03:48.493Z,759
2019-04-12T10:04:49.180Z,787
2019-04-12T10:05:49.868Z,804
2019-04-12T10:06:50.558Z,798
2019-04-12T10:07:51.234Z,765
2019-04-12T10:08:51.920Z,708
2019-04-12T10:09:52.609Z,697
2019-04-12T10:10:53.298Z,646
2019-04-12T10:11:53.979Z,528
2019-04-12T10:12:54.667Z,393
2019-04-12T10:13:55.351Z,303
2019-04-12T10:14:56.039Z,258
2019-04-12T10:15:56.719Z,241
2019-04-12T10:16:57.416Z,208
2019-04-12T10:17:58.100Z,180
2019-04-12T10:18:58.776Z,202
2019-04-12T10:19:59.463Z,253
2019-04-12T10:21:00.161Z,292
2019-04-12T10:22:00.842Z,343
2019-04-12T10:23:01.578Z,433
2019-04-12T10:24:02.257Z,511
2019-04-12T10:25:02.943Z,590
2019-04-12T10:26:03.630Z,646
2019-04-12T10:27:04.314Z,618
2019-04-12T10:28:05.010Z,590
2019-04-12T10:29:05.688Z,579
2019-04-12T10:30:06.373Z,601
2019-04-12T10:31:07.407Z,579
2019-04-12T10:32:08.123Z,579
2019-04-12T10:33:08.805Z,607
2019-04-12T10:34:09.490Z,585
2019-04-12T10:35:10.174Z,528
2019-04-12T10:36:10.858Z,630
2019-04-12T10:37:11.550Z,748
2019-04-12T10:38:12.232Z,781
2019-04-12T10:39:12.927Z,826
2019-04-12T10:40:13.602Z,877
2019-04-12T10:41:14.288Z,894
2019-04-12T10:42:14.974Z,866
2019-04-12T10:43:15.659Z,911
2019-04-12T10:44:16.398Z,916
2019-04-12T10:45:17.020Z,855
2019-04-12T10:46:17.710Z,753
2019-04-12T10:47:18.387Z,725
2019-04-12T10:48:19.072Z,770
2019-04-12T10:49:19.763Z,905
2019-04-12T10:50:20.445Z,1012
2019-04-12T10:51:21.130Z,1051
2019-04-12T10:52:21.829Z,1091
2019-04-12T10:53:22.503Z,1125
2019-04-12T10:54:23.193Z,1175
2019-04-12T10:55:23.880Z,1226
2019-04-12T10:56:24.564Z,1293
2019-04-12T10:58:38.517Z,1299
2019-04-12T10:59:39.212Z,1209
2019-04-12T11:00:39.896Z,1096
2019-04-12T11:01:40.584Z,1125
2019-04-12T11:02:41.270Z,1080
2019-04-12T11:03:41.959Z,950
2019-04-12T11:04:42.654Z,793
2019-04-12T11:05:43.334Z,624
2019-04-12T11:06:44.018Z,472
2019-04-12T11:07:44.709Z,405
2019-04-12T11:08:45.387Z,331
2019-04-12T11:09:46.075Z,360
2019-04-12T11:10:46.768Z,483
2019-04-12T11:11:47.447Z,680
2019-04-12T11:12:48.101Z,1051
2019-04-12T11:13:48.788Z,1597
2019-04-12T11:14:49.479Z,2041
2019-04-12T11:15:50.164Z,1878
2019-04-12T11:16:50.870Z,1788
2019-04-12T11:17:51.543Z,1755
2019-04-12T11:18:52.229Z,1687
2019-04-12T11:19:52.926Z,1625
2019-04-12T11:20:53.602Z,1636
2019-04-12T11:21:54.296Z,1490
2019-04-12T11:22:54.982Z,1406
2019-04-12T11:23:55.675Z,1350
2019-04-12T11:24:56.354Z,1299
2019-04-12T11:25:57.039Z,1293
2019-04-12T11:26:57.730Z,1299
2019-04-12T11:27:58.414Z,1203
2019-04-12T11:28:59.102Z,1108
2019-04-12T11:29:59.794Z,1080
2019-04-12T11:31:00.478Z,1170
2019-04-12T11:32:01.162Z,1085
2019-04-12T11:33:01.855Z,883
2019-04-12T11:34:02.544Z,776
2019-04-12T11:35:03.203Z,742
2019-04-12T11:36:03.885Z,714
2019-04-12T11:37:04.564Z,635
2019-04-12T11:38:05.253Z,573
2019-04-12T11:39:05.937Z,545
2019-04-12T11:40:06.637Z,635
2019-04-12T11:41:07.314Z,776
2019-04-12T11:42:08.006Z,1001
2019-04-12T11:43:08.689Z,1192
2019-04-12T11:44:09.379Z,1288
2019-04-12T11:45:10.075Z,1192
2019-04-12T11:46:10.761Z,1001
2019-04-12T11:47:11.449Z,736
2019-04-12T11:48:12.099Z,697
2019-04-12T11:49:12.796Z,652
2019-04-12T11:50:13.483Z,686
2019-04-12T11:51:14.174Z,703
2019-04-12T11:52:14.862Z,781
2019-04-12T11:53:15.551Z,815
2019-04-12T11:54:16.232Z,871
2019-04-12T11:55:16.939Z,916
2019-04-12T11:56:17.611Z,928
2019-04-12T11:57:18.298Z,911
2019-04-12T11:58:18.953Z,900
2019-04-12T11:59:28.997Z,843
2019-04-12T12:00:21.292Z,787
2019-04-12T12:01:21.981Z,731
2019-04-12T12:02:22.670Z,770
2019-04-12T12:03:23.355Z,821
2019-04-12T12:04:24.047Z,900
2019-04-12T12:05:24.721Z,990
2019-04-12T12:06:25.411Z,1096
2019-04-12T12:07:26.097Z,1119
2019-04-12T12:08:26.785Z,1125
2019-04-12T12:09:27.470Z,1125
2019-04-12T12:10:28.158Z,1113
2019-04-12T12:11:28.844Z,1085
2019-04-12T12:12:29.539Z,1074
2019-04-12T12:13:30.216Z,1068
2019-04-12T12:14:30.895Z,1057
2019-04-12T12:15:31.582Z,1057
2019-04-12T12:16:32.269Z,1057
2019-04-12T12:17:32.958Z,1074
2019-04-12T12:18:33.624Z,1091
2019-04-12T12:19:34.303Z,1113
2019-04-12T12:20:34.987Z,1130
2019-04-12T12:21:35.676Z,1170
2019-04-12T12:22:36.362Z,1203
2019-04-12T12:23:37.052Z,1243
2019-04-12T12:24:37.741Z,1316
2019-04-12T12:25:38.425Z,1389
2019-04-12T12:26:39.111Z,1456
2019-04-12T12:27:39.803Z,1479
2019-04-12T12:28:40.486Z,1468
2019-04-12T12:29:42.723Z,1479
2019-04-12T12:30:41.857Z,1513
2019-04-12T12:31:42.545Z,1524
2019-04-12T12:32:43.233Z,1535
2019-04-12T12:33:43.918Z,1389
2019-04-12T12:34:47.248Z,1310
2019-04-12T12:35:45.316Z,1254
2019-04-12T12:36:45.976Z,1198
2019-04-12T12:37:46.666Z,1164
2019-04-12T12:38:47.362Z,1125
2019-04-12T12:39:48.039Z,1091
2019-04-12T12:40:48.726Z,1063
2019-04-12T12:41:49.422Z,1046
2019-04-12T12:42:50.100Z,1040
2019-04-12T12:43:50.787Z,1040
2019-04-12T12:44:51.473Z,1051
2019-04-12T12:45:52.132Z,1063
2019-04-12T12:46:52.819Z,1068
2019-04-12T12:47:53.511Z,1074
2019-04-12T12:48:54.195Z,1074
2019-04-12T12:49:54.885Z,1080
2019-04-12T12:50:55.577Z,1096
2019-04-12T12:51:56.259Z,1113
2019-04-12T12:52:56.950Z,1130
2019-04-12T12:53:57.642Z,1164
2019-04-12T12:54:58.332Z,1198
2019-04-12T12:55:59.009Z,1181
2019-04-12T12:56:59.697Z,1164
2019-04-12T12:58:00.396Z,1113
2019-04-12T12:59:01.075Z,1057
2019-04-12T13:00:01.772Z,1001
2019-04-12T13:01:02.457Z,939
2019-04-12T13:02:03.141Z,877
2019-04-12T13:03:03.832Z,821
2019-04-12T13:04:04.515Z,798
2019-04-12T13:05:05.253Z,798
2019-04-12T13:06:05.937Z,804
2019-04-12T13:07:06.628Z,798
2019-04-12T13:08:07.306Z,793
2019-04-12T13:09:07.997Z,798
2019-04-12T13:10:08.686Z,810
2019-04-12T13:11:09.370Z,843
2019-04-12T13:12:10.059Z,888
2019-04-12T13:13:10.739Z,961
2019-04-12T13:14:11.434Z,1018
2019-04-12T13:15:12.125Z,1080
2019-04-12T13:16:12.809Z,1164
2019-04-12T13:17:13.496Z,1265
2019-04-12T13:18:14.182Z,1350
2019-04-12T13:19:14.867Z,1473
2019-04-12T13:20:15.553Z,1620
2019-04-12T13:21:16.244Z,2047
2019-04-12T13:22:16.931Z,1777
2019-04-12T13:23:17.616Z,1597
2019-04-12T13:24:18.302Z,1423
2019-04-12T13:25:18.991Z,1299
2019-04-12T13:26:19.677Z,1254
2019-04-12T13:27:20.365Z,1181
2019-04-12T13:28:21.053Z,1119
2019-04-12T13:29:21.748Z,1068
2019-04-12T13:30:22.436Z,1006
2019-04-12T13:31:23.120Z,984
2019-04-12T13:32:23.809Z,984
2019-04-12T13:33:24.497Z,973
2019-04-12T13:34:25.179Z,1001
2019-04-12T13:35:25.875Z,1023
2019-04-12T13:36:26.561Z,1051
2019-04-12T13:37:27.249Z,1096
2019-04-12T13:38:27.936Z,1125
2019-04-12T13:39:28.626Z,1130
2019-04-12T13:40:29.308Z,1136
2019-04-12T13:41:29.996Z,1119
2019-04-12T13:42:30.690Z,1074
2019-04-12T13:43:31.387Z,1035
2019-04-12T13:44:32.066Z,928
2019-04-12T13:45:32.749Z,860
2019-04-12T13:46:33.437Z,798
2019-04-12T13:47:34.128Z,753
2019-04-12T13:48:34.816Z,714
2019-04-12T13:49:35.510Z,691
2019-04-12T13:50:36.194Z,691
2019-04-12T13:51:36.880Z,725
2019-04-12T13:52:37.588Z,753
2019-04-12T13:53:47.354Z,753
2019-04-12T13:54:39.063Z,742
2019-04-12T13:55:39.686Z,703
2019-04-12T13:56:40.342Z,635
2019-04-12T13:57:43.067Z,573
2019-04-12T13:58:41.969Z,511
2019-04-12T13:59:42.634Z,483
2019-04-12T14:00:43.330Z,478
2019-04-12T14:01:44.023Z,500
2019-04-12T14:02:44.713Z,545
2019-04-12T14:03:45.422Z,601
2019-04-12T14:04:46.058Z,641
2019-04-12T14:05:46.767Z,691
2019-04-12T14:06:47.450Z,787
2019-04-12T14:07:48.124Z,871
2019-04-12T14:08:48.808Z,888
2019-04-12T14:09:49.494Z,900
2019-04-12T14:10:50.187Z,916
2019-04-12T14:11:50.870Z,984
2019-04-12T14:13:01.973Z,1198
2019-04-12T14:13:52.244Z,1220